createdAt,value
2022-10-15T00:01:42.543Z,95717.38
2022-10-15T00:04:10.644Z,95718.41
2022-10-15T00:06:38.671Z,95721.02
2022-10-15T00:09:06.969Z,95719.08
2022-10-15T00:11:36.335Z,95719.41
2022-10-15T00:14:04.642Z,95719.52
2022-10-15T00:16:33.967Z,95715.92
2022-10-15T00:19:02.020Z,95713.98
2022-10-15T00:21:30.747Z,95716.34
2022-10-15T00:23:58.961Z,95712.02
2022-10-15T00:26:29.262Z,95712.77
2022-10-15T00:29:00.474Z,95708.25
2022-10-15T00:31:30.441Z,95711.22
2022-10-15T00:34:00.644Z,95706.73
2022-10-15T00:36:32.329Z,95707.25
2022-10-15T00:39:01.708Z,95699.44
2022-10-15T00:41:40.360Z,95702.15
2022-10-15T00:44:29.501Z,95701.74
2022-10-15T00:47:03.186Z,95699.44
2022-10-15T00:49:35.666Z,95702.55
2022-10-15T00:52:11.986Z,95699.34
2022-10-15T00:55:05.706Z,95699.54
2022-10-15T00:57:34.370Z,95696.63
2022-10-15T01:00:09.413Z,95691.58
2022-10-15T01:02:39.919Z,95691.19
2022-10-15T01:05:08.851Z,95692.58
2022-10-15T01:07:36.989Z,95696.02
2022-10-15T01:10:07.287Z,95695.77
2022-10-15T01:12:44.722Z,95689.30
2022-10-15T01:15:17.235Z,95692.04
2022-10-15T01:18:10.327Z,95692.26
2022-10-15T01:20:38.406Z,95694.00
2022-10-15T01:23:43.865Z,95698.02
2022-10-15T01:26:18.106Z,95695.66
2022-10-15T01:29:04.624Z,95697.08
2022-10-15T01:32:01.812Z,95692.88
2022-10-15T01:34:41.757Z,95696.67
2022-10-15T01:37:45.981Z,95694.14
2022-10-15T01:40:38.310Z,95696.15
2022-10-15T01:43:12.680Z,95692.83
2022-10-15T01:46:06.265Z,95693.95
2022-10-15T01:48:44.304Z,95693.23
2022-10-15T01:51:16.768Z,95693.82
2022-10-15T01:53:46.328Z,95692.46
2022-10-15T01:56:20.793Z,95691.11
2022-10-15T01:58:50.908Z,95694.57
2022-10-15T02:01:19.359Z,95692.30
2022-10-15T02:03:53.948Z,95689.72
2022-10-15T02:06:29.278Z,95688.52
2022-10-15T02:09:17.203Z,95689.02
2022-10-15T02:12:01.177Z,95694.05
2022-10-15T02:14:41.171Z,95697.61
2022-10-15T02:17:11.187Z,95695.41
2022-10-15T02:20:04.597Z,95699.05
2022-10-15T02:22:45.189Z,95699.66
2022-10-15T02:25:20.173Z,95698.85
2022-10-15T02:27:51.249Z,95699.87
2022-10-15T02:30:20.112Z,95702.36
2022-10-15T02:32:53.447Z,95699.64
2022-10-15T02:35:23.679Z,95700.58
2022-10-15T02:37:54.579Z,95699.23
2022-10-15T02:40:28.164Z,95697.40
2022-10-15T02:42:56.632Z,95698.08
2022-10-15T02:45:24.709Z,95696.65
2022-10-15T02:47:52.704Z,95696.67
2022-10-15T02:50:20.770Z,95693.34
2022-10-15T02:52:48.786Z,95695.34
2022-10-15T02:55:17.643Z,95692.20
2022-10-15T02:57:45.742Z,95695.35
2022-10-15T03:00:14.738Z,95694.17
2022-10-15T03:02:42.948Z,95695.05
2022-10-15T03:05:11.456Z,95692.29
2022-10-15T03:07:39.818Z,95692.89
2022-10-15T03:10:09.107Z,95691.60
2022-10-15T03:12:37.352Z,95687.81
2022-10-15T03:15:07.001Z,95685.64
2022-10-15T03:17:36.520Z,95690.33
2022-10-15T03:20:05.848Z,95696.17
2022-10-15T03:22:36.574Z,95698.95
2022-10-15T03:25:05.160Z,95694.59
2022-10-15T03:27:33.265Z,95696.44
2022-10-15T03:30:01.433Z,95702.06
2022-10-15T03:32:33.007Z,95704.16
2022-10-15T03:35:04.671Z,95705.77
2022-10-15T03:37:33.210Z,95705.45
2022-10-15T03:40:01.341Z,95709.36
2022-10-15T03:42:29.361Z,95708.04
2022-10-15T03:44:58.052Z,95703.79
2022-10-15T03:47:26.554Z,95704.75
2022-10-15T03:49:54.646Z,95705.51
2022-10-15T03:52:23.004Z,95706.20
2022-10-15T03:54:51.736Z,95700.80
2022-10-15T03:57:21.064Z,95705.13
2022-10-15T03:59:56.458Z,95701.58
2022-10-15T04:02:25.951Z,95701.14
2022-10-15T04:04:55.503Z,95701.12
2022-10-15T04:07:24.183Z,95698.28
2022-10-15T04:09:52.805Z,95701.12
2022-10-15T04:12:27.489Z,95698.17
2022-10-15T04:14:55.828Z,95701.39
2022-10-15T04:17:23.980Z,95698.21
2022-10-15T04:19:52.300Z,95699.69
2022-10-15T04:22:21.036Z,95702.75
2022-10-15T04:24:53.062Z,95702.14
2022-10-15T04:27:28.894Z,95706.27
2022-10-15T04:30:06.280Z,95707.62
2022-10-15T04:32:34.487Z,95710.84
2022-10-15T04:35:02.497Z,95712.80
2022-10-15T04:38:06.021Z,95714.55
2022-10-15T04:41:09.642Z,95718.84
2022-10-15T04:44:00.792Z,95719.84
2022-10-15T04:46:29.281Z,95721.59
2022-10-15T04:48:59.156Z,95722.40
2022-10-15T04:51:27.572Z,95724.35
2022-10-15T04:54:25.188Z,95726.75
2022-10-15T04:57:04.415Z,95726.55
2022-10-15T04:59:33.493Z,95730.34
2022-10-15T05:02:43.248Z,95730.41
2022-10-15T05:05:27.638Z,95729.34
2022-10-15T05:08:02.256Z,95731.10
2022-10-15T05:10:32.247Z,95732.21
2022-10-15T05:13:04.076Z,95734.96
2022-10-15T05:15:34.545Z,95733.70
2022-10-15T05:18:03.193Z,95739.08
2022-10-15T05:20:36.993Z,95737.08
2022-10-15T05:23:06.478Z,95743.31
2022-10-15T05:25:35.557Z,95739.59
2022-10-15T05:28:04.823Z,95741.99
2022-10-15T05:30:35.460Z,95742.65
2022-10-15T05:33:04.064Z,95745.00
2022-10-15T05:35:34.532Z,95743.27
2022-10-15T05:38:04.748Z,95746.95
2022-10-15T05:40:33.042Z,95745.79
2022-10-15T05:43:30.314Z,95746.98
2022-10-15T05:45:59.262Z,95747.80
2022-10-15T05:48:28.500Z,95746.14
2022-10-15T05:51:06.490Z,95747.05
2022-10-15T05:53:36.799Z,95748.50
2022-10-15T05:56:10.688Z,95747.89
2022-10-15T05:58:40.898Z,95745.11
2022-10-15T06:01:13.763Z,95745.59
2022-10-15T06:03:45.702Z,95746.37
2022-10-15T06:06:23.012Z,95745.87
2022-10-15T06:08:54.140Z,95746.22
2022-10-15T06:11:23.070Z,95745.81
2022-10-15T06:13:51.690Z,95745.91
2022-10-15T06:16:23.577Z,95749.27
2022-10-15T06:18:53.943Z,95745.96
2022-10-15T06:21:25.521Z,95747.02
2022-10-15T06:24:01.156Z,95746.66
2022-10-15T06:26:32.847Z,95742.70
2022-10-15T06:29:01.702Z,95740.86
2022-10-15T06:31:33.087Z,95738.15
2022-10-15T06:34:02.561Z,95734.62
2022-10-15T06:36:32.875Z,95736.77
2022-10-15T06:39:02.125Z,95736.04
2022-10-15T06:41:32.854Z,95737.58
2022-10-15T06:44:05.844Z,95740.88
2022-10-15T10:15:41.871Z,95768.78
2022-10-15T10:18:25.877Z,95771.83
2022-10-15T10:21:02.248Z,95766.02
2022-10-15T10:23:39.641Z,95766.80
2022-10-15T10:26:11.681Z,95763.11
2022-10-15T10:28:49.371Z,95766.55
2022-10-15T10:31:18.747Z,95765.67
2022-10-15T10:33:50.168Z,95764.05
2022-10-15T10:36:25.562Z,95759.52
2022-10-15T10:38:57.265Z,95754.83
2022-10-15T10:41:49.860Z,95755.21
2022-10-15T10:44:20.924Z,95760.41
2022-10-15T10:47:03.800Z,95754.77
2022-10-15T10:49:39.223Z,95757.23
2022-10-15T10:52:26.058Z,95756.61
2022-10-15T10:55:13.022Z,95751.01
2022-10-15T10:58:00.259Z,95749.65
2022-10-15T11:00:41.353Z,95752.23
2022-10-15T11:03:24.723Z,95751.66
2022-10-15T11:06:04.658Z,95754.05
2022-10-15T11:08:57.813Z,95749.66
2022-10-15T11:11:43.763Z,95745.34
2022-10-15T11:14:31.592Z,95742.84
2022-10-15T11:17:44.149Z,95741.75
2022-10-15T11:20:54.923Z,95741.23
2022-10-15T11:23:50.131Z,95740.27
2022-10-15T11:26:59.449Z,95734.70
2022-10-15T11:30:07.127Z,95730.49
2022-10-15T11:33:09.292Z,95732.58
2022-10-15T11:35:59.815Z,95738.91
2022-10-15T11:38:43.909Z,95737.88
2022-10-15T11:41:53.070Z,95738.74
2022-10-15T11:44:35.188Z,95738.10
2022-10-15T11:47:13.854Z,95737.75
2022-10-15T11:50:07.556Z,95736.23
2022-10-15T11:52:57.043Z,95734.90
2022-10-15T11:56:23.827Z,95731.71
2022-10-15T11:59:13.586Z,95734.61
2022-10-15T12:01:52.628Z,95732.23
2022-10-15T12:04:48.889Z,95729.40
2022-10-15T12:07:23.798Z,95731.65
2022-10-15T12:10:20.491Z,95724.39
2022-10-15T12:13:06.452Z,95732.09
2022-10-15T12:15:45.695Z,95730.83
2022-10-15T12:18:25.651Z,95730.02
2022-10-15T12:20:58.773Z,95728.11
2022-10-15T12:23:41.414Z,95738.62
2022-10-15T12:26:24.832Z,95737.11
2022-10-15T12:28:58.425Z,95735.23
2022-10-15T12:31:49.418Z,95732.23
2022-10-15T12:34:27.174Z,95731.73
2022-10-15T12:37:17.426Z,95736.44
2022-10-15T12:39:52.682Z,95734.90
2022-10-15T12:42:32.181Z,95736.16
2022-10-15T12:45:06.416Z,95733.51
2022-10-15T12:48:16.926Z,95732.10
2022-10-15T12:50:48.009Z,95730.88
2022-10-15T12:53:33.284Z,95723.49
2022-10-15T12:56:22.692Z,95728.78
2022-10-15T12:58:54.625Z,95729.61
2022-10-15T13:01:28.706Z,95729.59
2022-10-15T13:04:00.713Z,95729.12
2022-10-15T13:06:38.218Z,95726.31
2022-10-15T13:09:26.220Z,95727.40
2022-10-15T13:11:58.764Z,95726.77
2022-10-15T13:14:40.140Z,95726.53
2022-10-15T13:17:18.719Z,95724.56
2022-10-15T13:20:08.187Z,95727.46
2022-10-15T13:22:37.442Z,95725.33
2022-10-15T13:25:16.487Z,95728.20
2022-10-15T13:27:45.273Z,95727.46
2022-10-15T13:30:16.345Z,95729.06
2022-10-15T13:32:56.218Z,95727.14
2022-10-15T13:35:29.645Z,95725.56
2022-10-15T13:37:59.756Z,95724.42
2022-10-15T13:40:31.951Z,95722.15
2022-10-15T13:43:16.531Z,95725.48
2022-10-15T13:45:58.891Z,95722.44
2022-10-15T13:48:32.763Z,95720.31
2022-10-15T13:51:05.870Z,95724.97
2022-10-15T13:53:36.014Z,95716.55
2022-10-15T13:56:22.777Z,95720.39
2022-10-15T13:58:51.625Z,95718.74
2022-10-15T14:01:22.566Z,95717.71
2022-10-15T14:03:51.536Z,95718.48
2022-10-15T14:06:33.280Z,95720.05
2022-10-15T14:09:14.094Z,95717.51
2022-10-15T14:11:42.458Z,95713.97
2022-10-15T14:14:32.782Z,95709.15
2022-10-15T14:17:07.767Z,95711.04
2022-10-15T14:19:38.770Z,95708.33
2022-10-15T14:22:07.365Z,95708.65
2022-10-15T14:24:38.826Z,95711.55
2022-10-15T14:27:20.359Z,95706.58
2022-10-15T14:30:00.210Z,95709.33
2022-10-15T14:33:00.778Z,95706.96
2022-10-15T14:35:37.655Z,95711.91
2022-10-15T14:38:16.677Z,95716.43
2022-10-15T14:41:06.478Z,95723.19
2022-10-15T14:43:37.564Z,95728.36
2022-10-15T14:46:11.807Z,95729.11
2022-10-15T14:48:43.071Z,95729.57
2022-10-15T14:51:29.461Z,95733.80
2022-10-15T14:53:58.526Z,95732.73
2022-10-15T14:56:32.289Z,95728.36
2022-10-15T14:59:01.338Z,95727.22
2022-10-15T15:01:33.977Z,95732.83
2022-10-15T15:04:02.221Z,95737.02
2022-10-15T15:06:30.643Z,95741.45
2022-10-15T15:08:58.742Z,95737.42
2022-10-15T15:11:26.761Z,95734.10
2022-10-15T15:13:55.682Z,95739.10
2022-10-15T15:16:23.812Z,95734.86
2022-10-15T15:18:52.010Z,95733.13
2022-10-15T15:21:22.773Z,95730.96
2022-10-15T15:23:51.208Z,95731.02
2022-10-15T15:26:19.263Z,95733.84
2022-10-15T15:28:47.411Z,95736.65
2022-10-15T15:31:18.992Z,95735.48
2022-10-15T15:33:47.364Z,95739.19
2022-10-15T15:36:20.886Z,95736.40
2022-10-15T15:38:51.537Z,95733.80
2022-10-15T15:41:22.860Z,95735.80
2022-10-15T15:43:52.298Z,95737.69
2022-10-15T15:46:20.937Z,95739.30
2022-10-15T15:48:48.966Z,95737.70
2022-10-15T15:51:28.270Z,95742.08
2022-10-15T15:53:57.420Z,95748.63
2022-10-15T15:56:25.968Z,95749.79
2022-10-15T15:58:54.225Z,95753.27
2022-10-15T16:01:22.489Z,95755.98
2022-10-15T16:03:50.618Z,95760.36
2022-10-15T16:06:18.614Z,95760.90
2022-10-15T16:08:46.721Z,95766.33
2022-10-15T16:11:14.803Z,95765.30
2022-10-15T16:13:43.282Z,95767.10
2022-10-15T16:16:12.880Z,95770.66
2022-10-15T16:18:41.143Z,95776.55
2022-10-15T16:21:09.241Z,95773.70
2022-10-15T16:23:37.390Z,95778.73
2022-10-15T16:26:05.637Z,95782.90
2022-10-15T16:28:33.839Z,95787.59
2022-10-15T16:31:22.142Z,95791.20
2022-10-15T16:33:52.322Z,95793.40
2022-10-15T16:36:20.482Z,95796.71
2022-10-15T16:38:48.640Z,95798.15
2022-10-15T16:41:21.864Z,95802.30
2022-10-15T16:43:50.429Z,95810.14
2022-10-15T16:46:19.528Z,95808.27
2022-10-15T16:48:54.370Z,95814.41
2022-10-15T16:51:24.262Z,95813.45
2022-10-15T16:53:52.958Z,95814.79
2022-10-15T16:56:23.916Z,95809.81
2022-10-15T16:58:52.511Z,95813.44
2022-10-15T17:01:27.794Z,95810.13
2022-10-15T17:03:58.967Z,95814.73
2022-10-15T17:06:30.255Z,95813.32
2022-10-15T17:09:00.610Z,95807.16
2022-10-15T17:11:31.686Z,95807.25
2022-10-15T17:14:02.593Z,95808.51
2022-10-15T17:16:37.780Z,95810.84
2022-10-15T17:19:07.499Z,95810.19
2022-10-15T17:21:36.390Z,95807.08
2022-10-15T17:24:07.071Z,95804.52
2022-10-15T17:26:38.487Z,95803.95
2022-10-15T17:29:12.493Z,95814.41
2022-10-15T17:31:40.700Z,95820.92
2022-10-15T17:34:11.742Z,95822.21
2022-10-15T17:36:45.315Z,95818.67
2022-10-15T17:39:16.446Z,95820.37
2022-10-15T17:41:44.720Z,95818.16
2022-10-15T17:44:13.738Z,95819.17
2022-10-15T17:46:42.200Z,95818.83
2022-10-15T17:49:11.361Z,95821.85
2022-10-15T17:51:40.776Z,95822.14
2022-10-15T17:54:08.744Z,95824.00
2022-10-15T17:56:40.615Z,95827.61
2022-10-15T17:59:11.838Z,95827.38
2022-10-15T18:02:00.386Z,95823.46
2022-10-15T18:04:30.022Z,95824.95
2022-10-15T18:06:58.461Z,95832.98
2022-10-15T18:09:28.338Z,95839.23
2022-10-15T18:12:03.089Z,95840.16
2022-10-15T18:14:32.264Z,95841.30
2022-10-15T18:17:00.618Z,95838.95
2022-10-15T18:19:29.353Z,95837.20
2022-10-15T18:21:57.852Z,95840.00
2022-10-15T18:24:26.053Z,95844.98
2022-10-15T18:26:54.141Z,95842.69
2022-10-15T18:29:22.707Z,95842.09
2022-10-15T18:31:56.432Z,95845.77
2022-10-15T18:34:25.649Z,95848.99
2022-10-15T18:36:53.934Z,95850.52
2022-10-15T18:39:25.621Z,95850.70
2022-10-15T18:41:53.719Z,95846.40
2022-10-15T18:44:23.562Z,95845.38
2022-10-15T18:46:52.208Z,95849.72
2022-10-15T18:49:21.485Z,95849.84
2022-10-15T18:51:52.054Z,95852.98
2022-10-15T18:54:22.081Z,95852.88
2022-10-15T18:56:51.104Z,95855.60
2022-10-15T18:59:20.499Z,95859.88
2022-10-15T19:01:49.780Z,95865.17
2022-10-15T19:04:20.099Z,95866.48
2022-10-15T19:06:51.063Z,95867.68
2022-10-15T19:09:25.615Z,95868.67
2022-10-15T19:11:54.930Z,95870.29
2022-10-15T19:14:24.684Z,95873.67
2022-10-15T19:16:53.510Z,95873.36
2022-10-15T19:19:23.495Z,95876.98
2022-10-15T19:21:52.553Z,95874.52
2022-10-15T19:24:21.823Z,95879.88
2022-10-15T19:26:51.354Z,95885.33
2022-10-15T19:29:20.106Z,95882.90
2022-10-15T19:31:50.092Z,95887.05
2022-10-15T19:34:18.273Z,95885.02
2022-10-15T19:36:48.708Z,95888.14
2022-10-15T19:39:21.049Z,95884.13
2022-10-15T19:41:50.757Z,95879.55
2022-10-15T19:44:25.277Z,95875.59
2022-10-15T19:46:55.923Z,95876.34
2022-10-15T19:49:25.282Z,95876.69
2022-10-15T19:51:53.494Z,95885.17
2022-10-15T19:54:21.956Z,95892.16
2022-10-15T19:56:50.122Z,95900.67
2022-10-15T19:59:18.545Z,95901.34
2022-10-15T20:01:46.784Z,95901.70
2022-10-15T20:04:14.990Z,95896.85
2022-10-15T20:06:43.856Z,95898.52
2022-10-15T20:09:12.097Z,95895.73
2022-10-15T20:11:40.204Z,95896.23
2022-10-15T20:14:08.396Z,95898.27
2022-10-15T20:16:36.506Z,95899.41
2022-10-15T20:19:05.864Z,95901.98
2022-10-15T20:21:34.036Z,95902.31
2022-10-15T20:24:04.686Z,95902.52
2022-10-15T20:26:33.723Z,95904.27
2022-10-15T20:29:02.259Z,95902.53
2022-10-15T20:31:33.297Z,95902.77
2022-10-15T20:34:03.482Z,95900.02
2022-10-15T20:36:32.366Z,95907.48
2022-10-15T20:39:01.693Z,95907.30
2022-10-15T20:41:30.412Z,95903.60
2022-10-15T20:43:58.535Z,95902.69
2022-10-15T20:46:49.287Z,95901.55
2022-10-15T20:49:26.739Z,95906.61
2022-10-15T20:51:55.016Z,95906.55
2022-10-15T20:54:23.041Z,95905.46
2022-10-15T20:56:52.793Z,95906.92
2022-10-15T20:59:20.907Z,95908.23
2022-10-15T21:01:49.050Z,95911.59
2022-10-15T21:04:19.669Z,95914.34
2022-10-15T21:06:48.234Z,95919.11
2022-10-15T21:09:16.469Z,95918.16
2022-10-15T21:11:46.189Z,95921.60
2022-10-15T21:14:15.366Z,95926.80
2022-10-15T21:16:43.475Z,95928.05
2022-10-15T21:19:11.523Z,95930.98
2022-10-15T21:21:39.897Z,95933.20
2022-10-15T21:24:08.071Z,95937.33
2022-10-15T21:26:36.150Z,95936.41
2022-10-15T21:29:04.403Z,95940.17
2022-10-15T21:31:32.705Z,95938.38
2022-10-15T21:34:00.722Z,95935.62
2022-10-15T21:36:29.166Z,95937.44
2022-10-15T21:39:01.599Z,95945.04
2022-10-15T21:41:32.007Z,95944.47
2022-10-15T21:44:01.204Z,95944.02
2022-10-15T21:46:31.331Z,95942.58
2022-10-15T21:49:00.466Z,95945.46
2022-10-15T21:51:31.937Z,95945.94
2022-10-15T21:54:02.339Z,95947.42
2022-10-15T21:56:30.952Z,95948.84
2022-10-15T21:58:59.828Z,95948.31
2022-10-15T22:01:40.282Z,95954.86
2022-10-15T22:04:10.609Z,95957.70
2022-10-15T22:06:40.518Z,95957.13
2022-10-15T22:09:10.297Z,95956.30
2022-10-15T22:11:40.662Z,95963.26
2022-10-15T22:14:11.957Z,95965.27
2022-10-15T22:16:41.550Z,95965.05
2022-10-15T22:19:13.524Z,95965.70
2022-10-15T22:21:41.929Z,95962.90
2022-10-15T22:24:17.098Z,95963.13
2022-10-15T22:26:48.488Z,95962.04
2022-10-15T22:29:20.780Z,95961.20
2022-10-15T22:31:50.165Z,95966.60
2022-10-15T22:34:19.898Z,95960.51
2022-10-15T22:36:48.534Z,95963.45
2022-10-15T22:39:18.959Z,95965.27
2022-10-15T22:41:48.385Z,95970.55
2022-10-15T22:44:19.761Z,95965.70
2022-10-15T22:46:49.832Z,95972.56
2022-10-15T22:49:21.007Z,95970.20
2022-10-15T22:51:50.319Z,95973.09
2022-10-15T22:54:20.477Z,95973.38
2022-10-15T22:56:49.751Z,95974.11
2022-10-15T22:59:18.527Z,95972.88
2022-10-15T23:01:47.220Z,95978.43
2022-10-15T23:04:16.503Z,95980.87
2022-10-15T23:06:44.626Z,95984.59
2022-10-15T23:09:18.014Z,95989.48
2022-10-15T23:11:47.029Z,95991.23
2022-10-15T23:14:16.643Z,95992.30
2022-10-15T23:16:46.902Z,95991.96
2022-10-15T23:19:20.608Z,95992.87
2022-10-15T23:21:55.479Z,95993.73
2022-10-15T23:24:25.997Z,95997.52
2022-10-15T23:26:54.135Z,96005.34
2022-10-15T23:29:24.742Z,96005.59
2022-10-15T23:31:54.506Z,96004.13
2022-10-15T23:34:24.937Z,96009.30
2022-10-15T23:36:53.337Z,96013.31
2022-10-15T23:39:23.992Z,96020.48
2022-10-15T23:41:52.469Z,96027.91
2022-10-15T23:44:21.744Z,96030.06
2022-10-15T23:46:49.743Z,96025.65
2022-10-15T23:49:18.015Z,96027.02
2022-10-15T23:51:46.494Z,96026.03
2022-10-15T23:54:17.943Z,96029.94
2022-10-15T23:56:47.485Z,96032.77
2022-10-15T23:59:17.293Z,96035.92
